sensor_id;sensor_type;location;lat;lon;timestamp;P1;durP1;ratioP1;P2;durP2;ratioP2
64684;SDS011;51109;47.414;18.954;2023-01-01T00:01:09;77.28;;;32.08;;
64684;SDS011;51109;47.414;18.954;2023-01-01T00:03:38;77.18;;;31.00;;
64684;SDS011;51109;47.414;18.954;2023-01-01T00:06:05;64.43;;;29.40;;
64684;SDS011;51109;47.414;18.954;2023-01-01T00:08:35;75.10;;;30.08;;
64684;SDS011;51109;47.414;18.954;2023-01-01T00:11:03;74.05;;;29.50;;
64684;SDS011;51109;47.414;18.954;2023-01-01T00:13:30;59.25;;;25.00;;
64684;SDS011;51109;47.414;18.954;2023-01-01T00:16:02;63.95;;;26.23;;
64684;SDS011;51109;47.414;18.954;2023-01-01T00:18:32;55.70;;;23.83;;
64684;SDS011;51109;47.414;18.954;2023-01-01T00:21:11;56.83;;;25.95;;
64684;SDS011;51109;47.414;18.954;2023-01-01T00:23:38;70.15;;;28.63;;
64684;SDS011;51109;47.414;18.954;2023-01-01T00:26:12;69.38;;;27.45;;
64684;SDS011;51109;47.414;18.954;2023-01-01T00:28:39;65.45;;;28.02;;
64684;SDS011;51109;47.414;18.954;2023-01-01T00:31:07;71.80;;;26.98;;
64684;SDS011;51109;47.414;18.954;2023-01-01T00:33:37;60.65;;;26.60;;
64684;SDS011;51109;47.414;18.954;2023-01-01T00:36:09;61.85;;;26.60;;
64684;SDS011;51109;47.414;18.954;2023-01-01T00:38:39;61.88;;;26.20;;
64684;SDS011;51109;47.414;18.954;2023-01-01T00:41:07;49.17;;;22.00;;
64684;SDS011;51109;47.414;18.954;2023-01-01T00:43:33;56.53;;;23.08;;
64684;SDS011;51109;47.414;18.954;2023-01-01T00:45:59;57.63;;;23.83;;
64684;SDS011;51109;47.414;18.954;2023-01-01T00:48:25;56.05;;;22.15;;
64684;SDS011;51109;47.414;18.954;2023-01-01T00:50:51;51.10;;;22.58;;
64684;SDS011;51109;47.414;18.954;2023-01-01T00:53:18;56.75;;;21.40;;
64684;SDS011;51109;47.414;18.954;2023-01-01T00:55:46;46.67;;;21.30;;
64684;SDS011;51109;47.414;18.954;2023-01-01T00:58:13;50.70;;;20.95;;
64684;SDS011;51109;47.414;18.954;2023-01-01T01:00:40;44.83;;;21.17;;
64684;SDS011;51109;47.414;18.954;2023-01-01T01:03:06;61.35;;;23.70;;
64684;SDS011;51109;47.414;18.954;2023-01-01T01:05:32;45.92;;;21.05;;
64684;SDS011;51109;47.414;18.954;2023-01-01T01:08:01;48.67;;;22.70;;
64684;SDS011;51109;47.414;18.954;2023-01-01T01:10:27;43.53;;;20.35;;
64684;SDS011;51109;47.414;18.954;2023-01-01T01:12:53;52.88;;;22.75;;
64684;SDS011;51109;47.414;18.954;2023-01-01T01:15:19;49.88;;;20.63;;
64684;SDS011;51109;47.414;18.954;2023-01-01T01:17:46;37.50;;;17.17;;
64684;SDS011;51109;47.414;18.954;2023-01-01T01:20:12;35.75;;;17.70;;
64684;SDS011;51109;47.414;18.954;2023-01-01T01:22:38;40.67;;;18.52;;
64684;SDS011;51109;47.414;18.954;2023-01-01T01:25:05;37.53;;;15.27;;
64684;SDS011;51109;47.414;18.954;2023-01-01T01:27:31;43.75;;;17.15;;
64684;SDS011;51109;47.414;18.954;2023-01-01T01:29:57;45.53;;;17.38;;
64684;SDS011;51109;47.414;18.954;2023-01-01T01:32:23;36.28;;;17.08;;
64684;SDS011;51109;47.414;18.954;2023-01-01T01:34:49;38.80;;;16.80;;
64684;SDS011;51109;47.414;18.954;2023-01-01T01:37:14;37.47;;;17.50;;
64684;SDS011;51109;47.414;18.954;2023-01-01T01:39:42;36.08;;;18.45;;
64684;SDS011;51109;47.414;18.954;2023-01-01T01:42:11;34.75;;;15.30;;
64684;SDS011;51109;47.414;18.954;2023-01-01T01:49:59;39.88;;;16.20;;
64684;SDS011;51109;47.414;18.954;2023-01-01T01:52:30;38.33;;;16.65;;
64684;SDS011;51109;47.414;18.954;2023-01-01T01:55:00;46.63;;;20.23;;
64684;SDS011;51109;47.414;18.954;2023-01-01T01:57:27;48.60;;;19.27;;
64684;SDS011;51109;47.414;18.954;2023-01-01T01:59:55;43.22;;;16.52;;
64684;SDS011;51109;47.414;18.954;2023-01-01T02:05:20;39.22;;;17.60;;
64684;SDS011;51109;47.414;18.954;2023-01-01T02:07:46;37.95;;;16.67;;
64684;SDS011;51109;47.414;18.954;2023-01-01T02:10:14;35.92;;;16.65;;
64684;SDS011;51109;47.414;18.954;2023-01-01T02:12:40;44.80;;;16.38;;
64684;SDS011;51109;47.414;18.954;2023-01-01T02:15:06;41.90;;;15.45;;
64684;SDS011;51109;47.414;18.954;2023-01-01T02:17:36;34.88;;;15.38;;
64684;SDS011;51109;47.414;18.954;2023-01-01T02:20:21;38.75;;;18.00;;
64684;SDS011;51109;47.414;18.954;2023-01-01T02:33:58;43.28;;;17.85;;
64684;SDS011;51109;47.414;18.954;2023-01-01T02:36:26;38.15;;;15.73;;
64684;SDS011;51109;47.414;18.954;2023-01-01T02:38:55;41.30;;;17.42;;
64684;SDS011;51109;47.414;18.954;2023-01-01T02:41:44;41.33;;;17.65;;
64684;SDS011;51109;47.414;18.954;2023-01-01T02:44:13;39.90;;;15.45;;
64684;SDS011;51109;47.414;18.954;2023-01-01T02:46:40;34.42;;;14.43;;
64684;SDS011;51109;47.414;18.954;2023-01-01T02:49:06;24.60;;;12.88;;
64684;SDS011;51109;47.414;18.954;2023-01-01T02:56:53;26.17;;;12.65;;
64684;SDS011;51109;47.414;18.954;2023-01-01T03:08:24;24.73;;;12.65;;
64684;SDS011;51109;47.414;18.954;2023-01-01T03:11:04;32.55;;;11.95;;
64684;SDS011;51109;47.414;18.954;2023-01-01T03:13:35;36.15;;;13.77;;
64684;SDS011;51109;47.414;18.954;2023-01-01T03:19:26;33.97;;;13.98;;
64684;SDS011;51109;47.414;18.954;2023-01-01T03:22:02;30.90;;;12.93;;
64684;SDS011;51109;47.414;18.954;2023-01-01T03:24:44;31.55;;;13.15;;
64684;SDS011;51109;47.414;18.954;2023-01-01T03:27:34;24.13;;;10.88;;
64684;SDS011;51109;47.414;18.954;2023-01-01T03:30:10;26.25;;;12.23;;
64684;SDS011;51109;47.414;18.954;2023-01-01T03:32:40;25.25;;;11.63;;
64684;SDS011;51109;47.414;18.954;2023-01-01T03:35:25;34.47;;;14.40;;
64684;SDS011;51109;47.414;18.954;2023-01-01T03:37:55;34.35;;;13.38;;
64684;SDS011;51109;47.414;18.954;2023-01-01T03:40:24;27.85;;;11.75;;
64684;SDS011;51109;47.414;18.954;2023-01-01T03:42:53;29.20;;;12.15;;
64684;SDS011;51109;47.414;18.954;2023-01-01T03:45:24;31.25;;;14.48;;
64684;SDS011;51109;47.414;18.954;2023-01-01T03:47:54;26.83;;;12.38;;
64684;SDS011;51109;47.414;18.954;2023-01-01T03:50:21;35.85;;;13.77;;
64684;SDS011;51109;47.414;18.954;2023-01-01T03:52:56;22.08;;;10.85;;
64684;SDS011;51109;47.414;18.954;2023-01-01T03:55:43;27.30;;;11.95;;
64684;SDS011;51109;47.414;18.954;2023-01-01T03:58:18;30.58;;;12.38;;
64684;SDS011;51109;47.414;18.954;2023-01-01T04:01:16;22.00;;;10.50;;
64684;SDS011;51109;47.414;18.954;2023-01-01T04:03:50;26.70;;;11.45;;
64684;SDS011;51109;47.414;18.954;2023-01-01T04:06:17;25.13;;;11.52;;
64684;SDS011;51109;47.414;18.954;2023-01-01T04:08:43;30.60;;;11.23;;
64684;SDS011;51109;47.414;18.954;2023-01-01T04:11:15;28.88;;;11.95;;
64684;SDS011;51109;47.414;18.954;2023-01-01T04:14:04;26.77;;;12.13;;
64684;SDS011;51109;47.414;18.954;2023-01-01T04:16:30;31.42;;;12.57;;
64684;SDS011;51109;47.414;18.954;2023-01-01T04:18:56;32.75;;;13.52;;
64684;SDS011;51109;47.414;18.954;2023-01-01T04:21:21;31.42;;;13.75;;
64684;SDS011;51109;47.414;18.954;2023-01-01T04:23:47;25.27;;;12.52;;
64684;SDS011;51109;47.414;18.954;2023-01-01T04:26:13;36.63;;;15.18;;
64684;SDS011;51109;47.414;18.954;2023-01-01T04:28:40;31.05;;;13.85;;
64684;SDS011;51109;47.414;18.954;2023-01-01T04:31:06;37.35;;;15.65;;
64684;SDS011;51109;47.414;18.954;2023-01-01T04:33:36;35.03;;;14.88;;
64684;SDS011;51109;47.414;18.954;2023-01-01T04:36:08;38.75;;;16.98;;
64684;SDS011;51109;47.414;18.954;2023-01-01T04:38:35;47.60;;;18.10;;
64684;SDS011;51109;47.414;18.954;2023-01-01T04:41:02;44.67;;;19.15;;
64684;SDS011;51109;47.414;18.954;2023-01-01T04:43:29;54.20;;;19.00;;
64684;SDS011;51109;47.414;18.954;2023-01-01T04:45:56;60.00;;;21.10;;
64684;SDS011;51109;47.414;18.954;2023-01-01T04:48:23;48.53;;;20.38;;
64684;SDS011;51109;47.414;18.954;2023-01-01T04:51:08;47.00;;;18.70;;
64684;SDS011;51109;47.414;18.954;2023-01-01T04:53:35;45.42;;;18.02;;
64684;SDS011;51109;47.414;18.954;2023-01-01T04:56:05;41.63;;;15.77;;
64684;SDS011;51109;47.414;18.954;2023-01-01T04:58:36;41.53;;;17.23;;
64684;SDS011;51109;47.414;18.954;2023-01-01T05:01:04;36.10;;;16.88;;
64684;SDS011;51109;47.414;18.954;2023-01-01T05:03:30;37.05;;;16.63;;
64684;SDS011;51109;47.414;18.954;2023-01-01T05:06:00;44.63;;;16.42;;
64684;SDS011;51109;47.414;18.954;2023-01-01T05:08:31;39.30;;;17.33;;
64684;SDS011;51109;47.414;18.954;2023-01-01T05:10:59;30.63;;;12.95;;
64684;SDS011;51109;47.414;18.954;2023-01-01T05:13:28;41.03;;;16.85;;
64684;SDS011;51109;47.414;18.954;2023-01-01T05:15:54;38.60;;;15.50;;
64684;SDS011;51109;47.414;18.954;2023-01-01T05:18:21;31.98;;;15.30;;
64684;SDS011;51109;47.414;18.954;2023-01-01T05:20:47;33.58;;;14.85;;
64684;SDS011;51109;47.414;18.954;2023-01-01T05:23:16;31.08;;;14.35;;
64684;SDS011;51109;47.414;18.954;2023-01-01T05:25:42;32.85;;;13.13;;
64684;SDS011;51109;47.414;18.954;2023-01-01T05:28:08;32.53;;;12.27;;
64684;SDS011;51109;47.414;18.954;2023-01-01T05:30:37;29.55;;;14.82;;
64684;SDS011;51109;47.414;18.954;2023-01-01T05:33:04;25.33;;;11.73;;
64684;SDS011;51109;47.414;18.954;2023-01-01T05:35:30;27.42;;;13.82;;
64684;SDS011;51109;47.414;18.954;2023-01-01T05:37:56;26.83;;;12.25;;
64684;SDS011;51109;47.414;18.954;2023-01-01T05:40:22;27.08;;;11.93;;
64684;SDS011;51109;47.414;18.954;2023-01-01T05:42:48;24.17;;;11.15;;
64684;SDS011;51109;47.414;18.954;2023-01-01T05:45:14;24.60;;;10.38;;
64684;SDS011;51109;47.414;18.954;2023-01-01T05:47:40;28.83;;;12.00;;
64684;SDS011;51109;47.414;18.954;2023-01-01T05:50:06;29.95;;;12.73;;
64684;SDS011;51109;47.414;18.954;2023-01-01T05:52:32;26.83;;;13.10;;
64684;SDS011;51109;47.414;18.954;2023-01-01T05:54:58;25.10;;;11.23;;
64684;SDS011;51109;47.414;18.954;2023-01-01T05:57:26;28.10;;;12.90;;
64684;SDS011;51109;47.414;18.954;2023-01-01T05:59:53;28.08;;;13.40;;
64684;SDS011;51109;47.414;18.954;2023-01-01T06:02:19;22.90;;;13.25;;
64684;SDS011;51109;47.414;18.954;2023-01-01T06:04:45;23.75;;;12.23;;
64684;SDS011;51109;47.414;18.954;2023-01-01T06:07:11;24.52;;;9.88;;
64684;SDS011;51109;47.414;18.954;2023-01-01T06:09:37;34.63;;;14.32;;
64684;SDS011;51109;47.414;18.954;2023-01-01T06:12:03;21.98;;;13.13;;
64684;SDS011;51109;47.414;18.954;2023-01-01T06:14:29;35.30;;;15.32;;
64684;SDS011;51109;47.414;18.954;2023-01-01T06:16:55;53.10;;;20.38;;
64684;SDS011;51109;47.414;18.954;2023-01-01T06:19:21;44.10;;;19.38;;
64684;SDS011;51109;47.414;18.954;2023-01-01T06:21:47;36.15;;;18.52;;
64684;SDS011;51109;47.414;18.954;2023-01-01T06:24:13;40.10;;;20.17;;
64684;SDS011;51109;47.414;18.954;2023-01-01T06:26:39;35.50;;;17.05;;
64684;SDS011;51109;47.414;18.954;2023-01-01T06:29:05;33.35;;;16.35;;
64684;SDS011;51109;47.414;18.954;2023-01-01T06:31:31;33.35;;;16.95;;
64684;SDS011;51109;47.414;18.954;2023-01-01T06:33:57;39.78;;;17.63;;
64684;SDS011;51109;47.414;18.954;2023-01-01T06:36:23;35.90;;;16.10;;
64684;SDS011;51109;47.414;18.954;2023-01-01T06:38:51;34.45;;;15.55;;
64684;SDS011;51109;47.414;18.954;2023-01-01T06:41:20;30.80;;;14.52;;
64684;SDS011;51109;47.414;18.954;2023-01-01T06:43:50;39.03;;;15.00;;
64684;SDS011;51109;47.414;18.954;2023-01-01T06:46:20;40.85;;;17.70;;
64684;SDS011;51109;47.414;18.954;2023-01-01T06:48:51;42.55;;;15.07;;
64684;SDS011;51109;47.414;18.954;2023-01-01T06:51:19;33.25;;;14.30;;
64684;SDS011;51109;47.414;18.954;2023-01-01T06:53:47;31.35;;;17.02;;
64684;SDS011;51109;47.414;18.954;2023-01-01T06:56:15;34.78;;;15.85;;
64684;SDS011;51109;47.414;18.954;2023-01-01T06:58:41;38.58;;;14.32;;
64684;SDS011;51109;47.414;18.954;2023-01-01T07:01:20;36.25;;;14.55;;
64684;SDS011;51109;47.414;18.954;2023-01-01T07:03:52;30.33;;;14.30;;
64684;SDS011;51109;47.414;18.954;2023-01-01T07:06:19;43.85;;;16.75;;
64684;SDS011;51109;47.414;18.954;2023-01-01T07:08:47;27.83;;;13.18;;
64684;SDS011;51109;47.414;18.954;2023-01-01T07:11:13;35.67;;;14.68;;
64684;SDS011;51109;47.414;18.954;2023-01-01T07:13:39;30.67;;;15.10;;
64684;SDS011;51109;47.414;18.954;2023-01-01T07:16:05;26.83;;;12.98;;
64684;SDS011;51109;47.414;18.954;2023-01-01T07:18:31;32.45;;;13.35;;
64684;SDS011;51109;47.414;18.954;2023-01-01T07:20:58;31.95;;;14.95;;
64684;SDS011;51109;47.414;18.954;2023-01-01T07:23:26;38.90;;;15.15;;
64684;SDS011;51109;47.414;18.954;2023-01-01T07:25:53;38.97;;;15.27;;
64684;SDS011;51109;47.414;18.954;2023-01-01T07:28:20;32.83;;;15.50;;
64684;SDS011;51109;47.414;18.954;2023-01-01T07:30:47;25.85;;;12.88;;
64684;SDS011;51109;47.414;18.954;2023-01-01T07:33:17;32.95;;;11.95;;
64684;SDS011;51109;47.414;18.954;2023-01-01T07:35:45;21.52;;;10.38;;
64684;SDS011;51109;47.414;18.954;2023-01-01T07:38:12;23.10;;;9.85;;
64684;SDS011;51109;47.414;18.954;2023-01-01T07:40:38;22.20;;;10.38;;
64684;SDS011;51109;47.414;18.954;2023-01-01T07:43:05;21.17;;;10.13;;
64684;SDS011;51109;47.414;18.954;2023-01-01T07:45:31;23.30;;;11.07;;
64684;SDS011;51109;47.414;18.954;2023-01-01T07:47:57;23.40;;;10.10;;
64684;SDS011;51109;47.414;18.954;2023-01-01T07:50:25;21.63;;;11.30;;
64684;SDS011;51109;47.414;18.954;2023-01-01T07:52:52;21.73;;;10.48;;
64684;SDS011;51109;47.414;18.954;2023-01-01T07:55:19;23.13;;;10.88;;
64684;SDS011;51109;47.414;18.954;2023-01-01T07:57:45;23.92;;;11.40;;
64684;SDS011;51109;47.414;18.954;2023-01-01T08:00:13;27.90;;;12.00;;
64684;SDS011;51109;47.414;18.954;2023-01-01T08:02:41;29.60;;;12.43;;
64684;SDS011;51109;47.414;18.954;2023-01-01T08:05:07;25.83;;;10.90;;
64684;SDS011;51109;47.414;18.954;2023-01-01T08:07:33;24.10;;;12.10;;
64684;SDS011;51109;47.414;18.954;2023-01-01T08:10:00;23.67;;;10.52;;
64684;SDS011;51109;47.414;18.954;2023-01-01T08:12:26;22.85;;;9.95;;
64684;SDS011;51109;47.414;18.954;2023-01-01T08:14:52;22.90;;;10.35;;
64684;SDS011;51109;47.414;18.954;2023-01-01T08:17:18;19.92;;;10.40;;
64684;SDS011;51109;47.414;18.954;2023-01-01T08:19:44;22.20;;;10.80;;
64684;SDS011;51109;47.414;18.954;2023-01-01T08:22:11;22.27;;;11.38;;
64684;SDS011;51109;47.414;18.954;2023-01-01T08:24:37;24.38;;;11.43;;
64684;SDS011;51109;47.414;18.954;2023-01-01T08:27:03;22.27;;;9.95;;
64684;SDS011;51109;47.414;18.954;2023-01-01T08:29:28;20.85;;;9.90;;
64684;SDS011;51109;47.414;18.954;2023-01-01T08:31:54;18.00;;;9.88;;
64684;SDS011;51109;47.414;18.954;2023-01-01T08:34:20;21.88;;;10.05;;
64684;SDS011;51109;47.414;18.954;2023-01-01T08:36:46;20.42;;;9.77;;
64684;SDS011;51109;47.414;18.954;2023-01-01T08:39:12;20.52;;;9.70;;
64684;SDS011;51109;47.414;18.954;2023-01-01T08:41:38;24.63;;;10.18;;
64684;SDS011;51109;47.414;18.954;2023-01-01T08:44:04;21.33;;;9.63;;
64684;SDS011;51109;47.414;18.954;2023-01-01T08:46:29;18.58;;;9.68;;
64684;SDS011;51109;47.414;18.954;2023-01-01T08:48:55;19.38;;;9.57;;
64684;SDS011;51109;47.414;18.954;2023-01-01T08:51:22;21.15;;;9.27;;
64684;SDS011;51109;47.414;18.954;2023-01-01T08:53:48;16.48;;;8.05;;
64684;SDS011;51109;47.414;18.954;2023-01-01T08:56:13;14.77;;;8.27;;
64684;SDS011;51109;47.414;18.954;2023-01-01T08:58:40;15.00;;;8.48;;
64684;SDS011;51109;47.414;18.954;2023-01-01T09:01:07;18.02;;;8.75;;
64684;SDS011;51109;47.414;18.954;2023-01-01T09:03:34;14.90;;;8.63;;
64684;SDS011;51109;47.414;18.954;2023-01-01T09:06:00;15.77;;;7.78;;
64684;SDS011;51109;47.414;18.954;2023-01-01T09:08:26;15.93;;;8.85;;
64684;SDS011;51109;47.414;18.954;2023-01-01T09:10:55;17.85;;;7.88;;
64684;SDS011;51109;47.414;18.954;2023-01-01T09:13:26;13.18;;;8.27;;
64684;SDS011;51109;47.414;18.954;2023-01-01T09:15:52;12.38;;;6.95;;
64684;SDS011;51109;47.414;18.954;2023-01-01T09:18:18;15.35;;;7.90;;
64684;SDS011;51109;47.414;18.954;2023-01-01T09:20:44;13.00;;;7.38;;
64684;SDS011;51109;47.414;18.954;2023-01-01T09:23:10;12.68;;;6.97;;
64684;SDS011;51109;47.414;18.954;2023-01-01T09:25:37;13.18;;;6.95;;
64684;SDS011;51109;47.414;18.954;2023-01-01T09:28:04;11.05;;;5.55;;
64684;SDS011;51109;47.414;18.954;2023-01-01T09:30:33;14.77;;;8.40;;
64684;SDS011;51109;47.414;18.954;2023-01-01T09:32:59;16.92;;;7.68;;
64684;SDS011;51109;47.414;18.954;2023-01-01T09:35:26;12.27;;;7.30;;
64684;SDS011;51109;47.414;18.954;2023-01-01T09:37:52;14.13;;;7.40;;
64684;SDS011;51109;47.414;18.954;2023-01-01T09:43:31;15.48;;;6.93;;
64684;SDS011;51109;47.414;18.954;2023-01-01T09:46:05;13.57;;;6.55;;
64684;SDS011;51109;47.414;18.954;2023-01-01T09:48:32;13.60;;;6.97;;
64684;SDS011;51109;47.414;18.954;2023-01-01T09:51:03;11.23;;;6.05;;
64684;SDS011;51109;47.414;18.954;2023-01-01T09:53:36;15.55;;;6.80;;
64684;SDS011;51109;47.414;18.954;2023-01-01T09:56:27;11.90;;;7.03;;
64684;SDS011;51109;47.414;18.954;2023-01-01T09:58:55;16.23;;;6.78;;
64684;SDS011;51109;47.414;18.954;2023-01-01T10:15:03;11.45;;;5.82;;
64684;SDS011;51109;47.414;18.954;2023-01-01T10:17:47;10.63;;;6.18;;
64684;SDS011;51109;47.414;18.954;2023-01-01T10:20:25;14.00;;;6.57;;
64684;SDS011;51109;47.414;18.954;2023-01-01T10:22:54;11.43;;;6.00;;
64684;SDS011;51109;47.414;18.954;2023-01-01T10:25:24;14.40;;;6.35;;
64684;SDS011;51109;47.414;18.954;2023-01-01T10:27:59;10.70;;;7.32;;
64684;SDS011;51109;47.414;18.954;2023-01-01T10:30:29;10.73;;;6.07;;
64684;SDS011;51109;47.414;18.954;2023-01-01T10:33:01;8.45;;;6.05;;
64684;SDS011;51109;47.414;18.954;2023-01-01T10:35:39;13.38;;;7.15;;
64684;SDS011;51109;47.414;18.954;2023-01-01T10:38:15;14.23;;;7.28;;
64684;SDS011;51109;47.414;18.954;2023-01-01T10:40:48;11.38;;;5.97;;
64684;SDS011;51109;47.414;18.954;2023-01-01T10:43:16;8.23;;;5.60;;
64684;SDS011;51109;47.414;18.954;2023-01-01T10:45:43;14.50;;;6.78;;
64684;SDS011;51109;47.414;18.954;2023-01-01T10:48:16;12.52;;;5.90;;
64684;SDS011;51109;47.414;18.954;2023-01-01T10:50:54;12.15;;;6.72;;
64684;SDS011;51109;47.414;18.954;2023-01-01T10:53:22;14.18;;;6.47;;
64684;SDS011;51109;47.414;18.954;2023-01-01T10:55:59;10.15;;;6.38;;
64684;SDS011;51109;47.414;18.954;2023-01-01T11:01:51;14.35;;;6.45;;
64684;SDS011;51109;47.414;18.954;2023-01-01T11:05:10;15.48;;;6.93;;
64684;SDS011;51109;47.414;18.954;2023-01-01T11:07:41;14.55;;;7.20;;
64684;SDS011;51109;47.414;18.954;2023-01-01T11:10:17;13.77;;;6.25;;
64684;SDS011;51109;47.414;18.954;2023-01-01T11:12:48;11.95;;;6.35;;
64684;SDS011;51109;47.414;18.954;2023-01-01T11:15:30;11.57;;;7.30;;
64684;SDS011;51109;47.414;18.954;2023-01-01T11:18:16;14.85;;;7.15;;
64684;SDS011;51109;47.414;18.954;2023-01-01T11:25:59;13.68;;;8.02;;
64684;SDS011;51109;47.414;18.954;2023-01-01T11:28:38;12.95;;;5.32;;
64684;SDS011;51109;47.414;18.954;2023-01-01T11:33:35;12.68;;;7.45;;
64684;SDS011;51109;47.414;18.954;2023-01-01T11:36:20;12.90;;;7.85;;
64684;SDS011;51109;47.414;18.954;2023-01-01T11:41:39;14.75;;;7.43;;
64684;SDS011;51109;47.414;18.954;2023-01-01T11:44:10;11.77;;;6.30;;
64684;SDS011;51109;47.414;18.954;2023-01-01T11:46:38;13.85;;;6.93;;
64684;SDS011;51109;47.414;18.954;2023-01-01T11:49:11;13.65;;;7.18;;
64684;SDS011;51109;47.414;18.954;2023-01-01T11:51:39;11.50;;;6.53;;
64684;SDS011;51109;47.414;18.954;2023-01-01T11:54:51;19.50;;;9.73;;
64684;SDS011;51109;47.414;18.954;2023-01-01T11:56:57;20.60;;;10.10;;
64684;SDS011;51109;47.414;18.954;2023-01-01T11:59:39;15.80;;;6.90;;
64684;SDS011;51109;47.414;18.954;2023-01-01T12:02:11;16.25;;;8.77;;
64684;SDS011;51109;47.414;18.954;2023-01-01T12:04:47;15.57;;;8.23;;
64684;SDS011;51109;47.414;18.954;2023-01-01T12:07:20;19.42;;;9.02;;
64684;SDS011;51109;47.414;18.954;2023-01-01T12:09:54;15.27;;;8.40;;
64684;SDS011;51109;47.414;18.954;2023-01-01T12:15:00;14.32;;;8.02;;
64684;SDS011;51109;47.414;18.954;2023-01-01T12:17:36;16.85;;;9.52;;
64684;SDS011;51109;47.414;18.954;2023-01-01T12:20:36;15.73;;;9.32;;
64684;SDS011;51109;47.414;18.954;2023-01-01T12:23:23;18.85;;;10.02;;
64684;SDS011;51109;47.414;18.954;2023-01-01T12:26:00;14.13;;;7.97;;
64684;SDS011;51109;47.414;18.954;2023-01-01T12:28:38;17.60;;;9.20;;
64684;SDS011;51109;47.414;18.954;2023-01-01T12:34:29;21.65;;;9.55;;
64684;SDS011;51109;47.414;18.954;2023-01-01T12:42:46;16.63;;;9.48;;
64684;SDS011;51109;47.414;18.954;2023-01-01T12:56:10;19.17;;;9.45;;
64684;SDS011;51109;47.414;18.954;2023-01-01T12:58:57;14.70;;;9.68;;
64684;SDS011;51109;47.414;18.954;2023-01-01T13:01:35;22.35;;;8.90;;
64684;SDS011;51109;47.414;18.954;2023-01-01T13:06:43;18.38;;;9.10;;
64684;SDS011;51109;47.414;18.954;2023-01-01T13:09:25;13.82;;;7.90;;
64684;SDS011;51109;47.414;18.954;2023-01-01T13:12:05;18.08;;;8.43;;
64684;SDS011;51109;47.414;18.954;2023-01-01T13:14:38;12.65;;;8.27;;
64684;SDS011;51109;47.414;18.954;2023-01-01T13:17:04;12.52;;;7.63;;
64684;SDS011;51109;47.414;18.954;2023-01-01T13:19:42;15.80;;;8.75;;
64684;SDS011;51109;47.414;18.954;2023-01-01T13:28:00;15.38;;;8.07;;
64684;SDS011;51109;47.414;18.954;2023-01-01T13:38:44;14.95;;;8.52;;
64684;SDS011;51109;47.414;18.954;2023-01-01T13:51:52;17.75;;;8.40;;
64684;SDS011;51109;47.414;18.954;2023-01-01T14:02:50;19.65;;;8.73;;
64684;SDS011;51109;47.414;18.954;2023-01-01T14:07:55;18.42;;;10.02;;
64684;SDS011;51109;47.414;18.954;2023-01-01T14:10:25;22.27;;;10.13;;
64684;SDS011;51109;47.414;18.954;2023-01-01T14:15:32;17.70;;;8.65;;
64684;SDS011;51109;47.414;18.954;2023-01-01T14:18:03;22.50;;;9.00;;
64684;SDS011;51109;47.414;18.954;2023-01-01T14:20:41;19.25;;;9.95;;
64684;SDS011;51109;47.414;18.954;2023-01-01T14:23:11;19.20;;;9.88;;
64684;SDS011;51109;47.414;18.954;2023-01-01T14:26:01;19.10;;;9.77;;
64684;SDS011;51109;47.414;18.954;2023-01-01T14:28:32;19.67;;;11.15;;
64684;SDS011;51109;47.414;18.954;2023-01-01T14:31:01;24.30;;;10.13;;
64684;SDS011;51109;47.414;18.954;2023-01-01T14:33:31;21.00;;;10.02;;
64684;SDS011;51109;47.414;18.954;2023-01-01T14:36:05;18.27;;;10.00;;
64684;SDS011;51109;47.414;18.954;2023-01-01T14:38:43;18.40;;;9.63;;
64684;SDS011;51109;47.414;18.954;2023-01-01T14:41:13;16.02;;;7.65;;
64684;SDS011;51109;47.414;18.954;2023-01-01T14:43:41;16.08;;;8.57;;
64684;SDS011;51109;47.414;18.954;2023-01-01T14:46:12;19.73;;;9.45;;
64684;SDS011;51109;47.414;18.954;2023-01-01T14:49:00;21.30;;;9.35;;
64684;SDS011;51109;47.414;18.954;2023-01-01T14:53:59;16.77;;;8.38;;
64684;SDS011;51109;47.414;18.954;2023-01-01T14:56:31;20.80;;;9.38;;
64684;SDS011;51109;47.414;18.954;2023-01-01T15:04:36;22.00;;;9.50;;
64684;SDS011;51109;47.414;18.954;2023-01-01T15:07:02;21.02;;;10.38;;
64684;SDS011;51109;47.414;18.954;2023-01-01T15:09:29;18.25;;;8.88;;
64684;SDS011;51109;47.414;18.954;2023-01-01T15:11:58;19.23;;;10.27;;
64684;SDS011;51109;47.414;18.954;2023-01-01T15:19:34;23.23;;;11.32;;
64684;SDS011;51109;47.414;18.954;2023-01-01T15:24:59;17.65;;;9.27;;
64684;SDS011;51109;47.414;18.954;2023-01-01T15:27:30;22.60;;;9.95;;
64684;SDS011;51109;47.414;18.954;2023-01-01T15:30:02;18.10;;;9.13;;
64684;SDS011;51109;47.414;18.954;2023-01-01T15:32:33;20.25;;;10.50;;
64684;SDS011;51109;47.414;18.954;2023-01-01T15:35:06;21.10;;;9.68;;
64684;SDS011;51109;47.414;18.954;2023-01-01T15:38:00;19.02;;;9.23;;
64684;SDS011;51109;47.414;18.954;2023-01-01T15:40:34;15.38;;;7.43;;
64684;SDS011;51109;47.414;18.954;2023-01-01T15:50:29;16.25;;;9.10;;
64684;SDS011;51109;47.414;18.954;2023-01-01T15:53:27;16.17;;;8.05;;
64684;SDS011;51109;47.414;18.954;2023-01-01T15:55:57;15.80;;;7.63;;
64684;SDS011;51109;47.414;18.954;2023-01-01T15:58:36;16.23;;;6.28;;
64684;SDS011;51109;47.414;18.954;2023-01-01T16:01:06;15.23;;;9.45;;
64684;SDS011;51109;47.414;18.954;2023-01-01T16:03:35;23.98;;;10.13;;
64684;SDS011;51109;47.414;18.954;2023-01-01T16:06:02;21.48;;;10.13;;
64684;SDS011;51109;47.414;18.954;2023-01-01T16:08:30;16.92;;;9.60;;
64684;SDS011;51109;47.414;18.954;2023-01-01T16:10:56;19.33;;;10.77;;
64684;SDS011;51109;47.414;18.954;2023-01-01T16:13:22;19.70;;;9.93;;
64684;SDS011;51109;47.414;18.954;2023-01-01T16:15:58;18.40;;;10.07;;
64684;SDS011;51109;47.414;18.954;2023-01-01T16:18:30;18.23;;;9.25;;
64684;SDS011;51109;47.414;18.954;2023-01-01T16:21:01;17.88;;;10.43;;
64684;SDS011;51109;47.414;18.954;2023-01-01T16:23:28;14.88;;;8.45;;
64684;SDS011;51109;47.414;18.954;2023-01-01T16:25:54;17.55;;;9.55;;
64684;SDS011;51109;47.414;18.954;2023-01-01T16:28:20;15.75;;;8.50;;
64684;SDS011;51109;47.414;18.954;2023-01-01T16:30:47;18.60;;;9.25;;
64684;SDS011;51109;47.414;18.954;2023-01-01T16:33:15;19.48;;;10.82;;
64684;SDS011;51109;47.414;18.954;2023-01-01T16:35:42;21.77;;;10.93;;
64684;SDS011;51109;47.414;18.954;2023-01-01T16:38:09;23.08;;;11.48;;
64684;SDS011;51109;47.414;18.954;2023-01-01T16:40:35;27.73;;;10.98;;
64684;SDS011;51109;47.414;18.954;2023-01-01T16:43:01;22.92;;;11.77;;
64684;SDS011;51109;47.414;18.954;2023-01-01T16:45:30;21.98;;;9.63;;
64684;SDS011;51109;47.414;18.954;2023-01-01T16:47:56;18.63;;;9.80;;
64684;SDS011;51109;47.414;18.954;2023-01-01T16:50:22;21.45;;;10.85;;
64684;SDS011;51109;47.414;18.954;2023-01-01T16:52:47;18.08;;;9.07;;
64684;SDS011;51109;47.414;18.954;2023-01-01T16:55:13;22.92;;;11.20;;
64684;SDS011;51109;47.414;18.954;2023-01-01T16:57:39;23.25;;;10.65;;
64684;SDS011;51109;47.414;18.954;2023-01-01T17:00:06;19.48;;;9.52;;
64684;SDS011;51109;47.414;18.954;2023-01-01T17:02:37;22.48;;;10.05;;
64684;SDS011;51109;47.414;18.954;2023-01-01T17:05:03;25.23;;;11.73;;